createdAt,value
2024-05-09T00:01:23.990Z,37.06
2024-05-09T00:02:24.128Z,37.05
2024-05-09T00:03:24.029Z,37.08
2024-05-09T00:04:24.070Z,37.10
2024-05-09T00:05:24.113Z,37.09
2024-05-09T00:06:24.073Z,37.09
2024-05-09T00:07:24.126Z,37.08
2024-05-09T00:08:24.257Z,37.06
2024-05-09T00:09:24.241Z,37.05
2024-05-09T00:10:29.328Z,36.98
2024-05-09T00:11:25.393Z,37.05
2024-05-09T00:12:24.383Z,37.09
2024-05-09T00:13:24.342Z,37.03
2024-05-09T00:14:24.396Z,37.01
2024-05-09T00:15:24.359Z,37.01
2024-05-09T00:16:24.458Z,37.02
2024-05-09T00:17:24.592Z,37.02
2024-05-09T00:18:24.600Z,37.01
2024-05-09T00:19:24.474Z,37.00
2024-05-09T00:20:32.320Z,37.05
2024-05-09T00:21:25.456Z,36.98
2024-05-09T00:22:24.459Z,37.02
2024-05-09T00:23:24.517Z,36.98
2024-05-09T00:24:24.479Z,36.96
2024-05-09T00:25:24.487Z,36.96
2024-05-09T00:26:24.581Z,36.93
2024-05-09T00:27:24.495Z,36.96
2024-05-09T00:28:24.509Z,36.96
2024-05-09T00:29:24.653Z,37.01
2024-05-09T00:30:33.139Z,37.02
2024-05-09T00:31:25.549Z,36.98
2024-05-09T00:32:24.684Z,37.00
2024-05-09T00:33:24.818Z,36.97
2024-05-09T00:34:24.805Z,36.97
2024-05-09T00:35:24.758Z,36.96
2024-05-09T00:36:24.643Z,36.97
2024-05-09T00:37:24.635Z,36.93
2024-05-09T00:38:24.758Z,36.92
2024-05-09T00:39:24.644Z,36.90
2024-05-09T00:40:31.228Z,36.95
2024-05-09T00:41:25.737Z,36.93
2024-05-09T00:42:24.690Z,36.95
2024-05-09T00:43:24.708Z,36.95
2024-05-09T00:44:24.854Z,36.92
2024-05-09T00:45:24.746Z,36.95
2024-05-09T00:46:24.749Z,36.94
2024-05-09T00:47:24.998Z,36.92
2024-05-09T00:48:24.886Z,36.92
2024-05-09T00:49:24.917Z,36.92
2024-05-09T00:50:30.025Z,36.92
2024-05-09T00:51:25.825Z,36.94
2024-05-09T00:52:24.805Z,36.92
2024-05-09T00:53:24.871Z,36.93
2024-05-09T00:54:24.803Z,36.89
2024-05-09T00:55:24.810Z,36.89
2024-05-09T00:56:24.935Z,36.92
2024-05-09T00:57:24.849Z,36.88
2024-05-09T00:58:24.865Z,36.90
2024-05-09T00:59:25.065Z,36.91
2024-05-09T01:00:31.330Z,36.92
2024-05-09T01:01:25.960Z,36.87
2024-05-09T01:02:25.057Z,36.88
2024-05-09T01:03:25.111Z,36.89
2024-05-09T01:04:25.010Z,36.90
2024-05-09T01:05:25.034Z,36.90
2024-05-09T01:06:25.006Z,36.92
2024-05-09T01:07:25.057Z,36.88
2024-05-09T01:08:25.084Z,36.88
2024-05-09T01:09:25.067Z,36.85
2024-05-09T01:10:32.279Z,36.89
2024-05-09T01:11:26.174Z,36.89
2024-05-09T01:12:25.298Z,36.88
2024-05-09T01:13:25.158Z,36.88
2024-05-09T01:14:25.228Z,36.85
2024-05-09T01:15:25.143Z,36.85
2024-05-09T01:16:25.171Z,36.89
2024-05-09T01:17:25.283Z,36.90
2024-05-09T01:18:25.303Z,36.86
2024-05-09T01:19:25.371Z,36.84
2024-05-09T01:20:32.159Z,36.81
2024-05-09T01:21:26.315Z,36.89
2024-05-09T01:22:25.260Z,36.85
2024-05-09T01:23:25.301Z,36.83
2024-05-09T01:24:25.254Z,36.85
2024-05-09T01:25:25.269Z,36.81
2024-05-09T01:26:25.319Z,36.81
2024-05-09T01:27:25.290Z,36.81
2024-05-09T01:28:25.304Z,36.84
2024-05-09T01:29:25.416Z,36.87
2024-05-09T01:30:33.340Z,36.85
2024-05-09T01:31:26.460Z,36.84
2024-05-09T01:32:25.605Z,36.79
2024-05-09T01:33:25.539Z,36.85
2024-05-09T01:34:25.394Z,36.81
2024-05-09T01:35:25.588Z,36.83
2024-05-09T01:36:25.429Z,36.79
2024-05-09T01:37:25.458Z,36.81
2024-05-09T01:38:25.474Z,36.80
2024-05-09T01:39:25.454Z,36.84
2024-05-09T01:40:35.413Z,36.84
2024-05-09T01:41:26.578Z,36.77
2024-05-09T01:42:25.494Z,36.79
2024-05-09T01:43:25.517Z,36.76
2024-05-09T01:44:25.564Z,36.79
2024-05-09T01:45:25.563Z,36.79
2024-05-09T01:46:25.565Z,36.81
2024-05-09T01:47:25.753Z,36.81
2024-05-09T01:48:25.675Z,36.77
2024-05-09T01:49:25.722Z,36.82
2024-05-09T01:50:36.999Z,36.75
2024-05-09T01:51:26.652Z,36.77
2024-05-09T01:52:25.665Z,36.78
2024-05-09T01:53:25.740Z,36.77
2024-05-09T01:54:25.689Z,36.84
2024-05-09T01:55:25.703Z,36.77
2024-05-09T01:56:25.776Z,36.77
2024-05-09T01:57:25.731Z,36.77
2024-05-09T01:58:25.744Z,36.77
2024-05-09T01:59:25.950Z,36.77
2024-05-09T02:00:36.335Z,36.80
2024-05-09T02:01:26.950Z,36.74
2024-05-09T02:02:25.909Z,36.76
2024-05-09T02:03:25.948Z,36.75
2024-05-09T02:04:25.994Z,36.76
2024-05-09T02:05:25.947Z,36.76
2024-05-09T02:06:25.900Z,36.76
2024-05-09T02:07:25.909Z,36.72
2024-05-09T02:08:26.014Z,36.77
2024-05-09T02:09:25.945Z,36.76
2024-05-09T02:10:31.972Z,36.75
2024-05-09T02:11:27.098Z,36.77
2024-05-09T02:12:26.091Z,36.80
2024-05-09T02:13:26.017Z,36.75
2024-05-09T02:14:26.185Z,36.72
2024-05-09T02:15:26.044Z,36.75
2024-05-09T02:16:26.058Z,36.73
2024-05-09T02:17:26.247Z,36.71
2024-05-09T02:18:26.185Z,36.73
2024-05-09T02:19:26.144Z,36.72
2024-05-09T02:20:33.431Z,36.75
2024-05-09T02:21:27.127Z,36.71
2024-05-09T02:22:26.143Z,36.70
2024-05-09T02:23:26.205Z,36.71
2024-05-09T02:24:26.160Z,36.70
2024-05-09T02:25:26.166Z,36.70
2024-05-09T02:26:26.241Z,36.72
2024-05-09T02:27:26.212Z,36.75
2024-05-09T02:28:26.201Z,36.68
2024-05-09T02:29:26.316Z,36.70
2024-05-09T02:30:35.926Z,36.71
2024-05-09T02:31:27.240Z,36.76
2024-05-09T02:32:26.391Z,36.68
2024-05-09T02:33:26.497Z,36.68
2024-05-09T02:34:26.393Z,36.68
2024-05-09T02:35:26.473Z,36.64
2024-05-09T02:36:26.311Z,36.67
2024-05-09T02:37:26.319Z,36.66
2024-05-09T02:38:26.386Z,36.69
2024-05-09T02:39:26.352Z,36.70
2024-05-09T02:40:35.069Z,36.67
2024-05-09T02:41:27.458Z,36.65
2024-05-09T02:42:26.377Z,36.66
2024-05-09T02:43:26.399Z,36.68
2024-05-09T02:44:26.503Z,36.66
2024-05-09T02:45:26.415Z,36.63
2024-05-09T02:46:26.432Z,36.65
2024-05-09T02:47:26.576Z,36.66
2024-05-09T02:48:26.645Z,36.65
2024-05-09T02:49:26.633Z,36.68
2024-05-09T02:50:34.137Z,36.64
2024-05-09T02:51:27.493Z,36.69
2024-05-09T02:52:26.515Z,36.65
2024-05-09T02:53:26.573Z,36.68
2024-05-09T02:54:26.543Z,36.67
2024-05-09T02:55:26.566Z,36.63
2024-05-09T02:56:26.636Z,36.65
2024-05-09T02:57:26.585Z,36.67
2024-05-09T02:58:26.615Z,36.63
2024-05-09T02:59:26.684Z,36.65
2024-05-09T03:00:34.994Z,36.59
2024-05-09T03:01:27.706Z,36.65
2024-05-09T03:02:26.753Z,36.62
2024-05-09T03:03:27.138Z,36.62
2024-05-09T03:04:26.720Z,36.62
2024-05-09T03:05:26.732Z,36.62
2024-05-09T03:06:26.704Z,36.64
2024-05-09T03:07:26.714Z,36.60
2024-05-09T03:08:26.780Z,36.63
2024-05-09T03:09:26.747Z,36.62
2024-05-09T03:10:29.040Z,36.62
2024-05-09T03:11:27.897Z,36.58
2024-05-09T03:12:26.859Z,36.59
2024-05-09T03:13:26.809Z,36.59
2024-05-09T03:14:27.007Z,36.60
2024-05-09T03:15:26.839Z,36.60
2024-05-09T03:16:26.863Z,36.59
2024-05-09T03:17:27.031Z,36.58
2024-05-09T03:18:26.966Z,36.56
2024-05-09T03:19:26.947Z,36.56
2024-05-09T03:20:32.637Z,36.56
2024-05-09T03:21:27.931Z,36.58
2024-05-09T03:22:26.939Z,36.55
2024-05-09T03:23:26.986Z,36.59
2024-05-09T03:24:26.967Z,36.55
2024-05-09T03:25:26.985Z,36.59
2024-05-09T03:26:27.038Z,36.54
2024-05-09T03:27:27.027Z,36.59
2024-05-09T03:28:27.029Z,36.56
2024-05-09T03:29:27.190Z,36.57
2024-05-09T03:30:35.783Z,36.55
2024-05-09T03:31:28.127Z,36.59
2024-05-09T03:32:27.168Z,36.58
2024-05-09T03:33:27.359Z,36.56
2024-05-09T03:34:27.139Z,36.58
2024-05-09T03:35:27.221Z,36.54
2024-05-09T03:36:27.130Z,36.55
2024-05-09T03:37:27.125Z,36.56
2024-05-09T03:38:27.164Z,36.54
2024-05-09T03:39:27.141Z,36.54
2024-05-09T03:40:30.816Z,36.52
2024-05-09T03:41:27.185Z,36.54
2024-05-09T03:42:27.186Z,36.57
2024-05-09T03:43:27.189Z,36.58
2024-05-09T03:44:27.242Z,36.57
2024-05-09T03:45:27.222Z,36.54
2024-05-09T03:46:27.240Z,36.54
2024-05-09T03:47:27.340Z,36.54
2024-05-09T03:48:27.399Z,36.54
2024-05-09T03:49:27.377Z,36.55
2024-05-09T03:50:33.692Z,36.52
2024-05-09T03:51:28.291Z,36.49
2024-05-09T03:52:27.297Z,36.54
2024-05-09T03:53:27.350Z,36.57
2024-05-09T03:54:27.335Z,36.58
2024-05-09T03:55:27.362Z,36.54
2024-05-09T03:56:27.413Z,36.55
2024-05-09T03:57:27.383Z,36.52
2024-05-09T03:58:27.389Z,36.52
2024-05-09T03:59:27.490Z,36.52
2024-05-09T04:00:35.201Z,36.51
2024-05-09T04:01:28.480Z,36.52
2024-05-09T04:02:27.585Z,36.52
2024-05-09T04:03:27.768Z,36.49
2024-05-09T04:04:27.516Z,36.51
2024-05-09T04:05:27.579Z,36.55
2024-05-09T04:06:27.486Z,36.54
2024-05-09T04:07:27.518Z,36.50
2024-05-09T04:08:27.635Z,36.57
2024-05-09T04:09:27.519Z,36.50
2024-05-09T04:10:32.757Z,36.52
2024-05-09T04:11:28.644Z,36.49
2024-05-09T04:12:27.603Z,36.49
2024-05-09T04:13:27.570Z,36.48
2024-05-09T04:14:27.766Z,36.55
2024-05-09T04:15:27.622Z,36.50
2024-05-09T04:16:27.625Z,36.51
2024-05-09T04:17:27.850Z,36.48
2024-05-09T04:18:27.774Z,36.49
2024-05-09T04:19:27.831Z,36.52
2024-05-09T04:20:36.642Z,36.47
2024-05-09T04:21:28.687Z,36.51
2024-05-09T04:22:27.709Z,36.52
2024-05-09T04:23:27.834Z,36.50
2024-05-09T04:24:27.743Z,36.51
2024-05-09T04:25:27.750Z,36.48
2024-05-09T04:26:27.811Z,36.47
2024-05-09T04:27:27.777Z,36.48
2024-05-09T04:28:27.782Z,36.47
2024-05-09T04:29:27.858Z,36.50
2024-05-09T04:30:34.995Z,36.51
2024-05-09T04:31:28.842Z,36.47
2024-05-09T04:32:27.998Z,36.48
2024-05-09T04:33:28.004Z,36.49
2024-05-09T04:34:27.963Z,36.47
2024-05-09T04:35:35.252Z,36.48
2024-05-09T04:36:35.172Z,36.51
2024-05-09T04:37:35.181Z,36.47
2024-05-09T04:38:35.261Z,36.43
2024-05-09T04:39:35.187Z,36.49
2024-05-09T04:40:37.015Z,36.47
2024-05-09T04:41:35.368Z,36.46
2024-05-09T04:42:35.382Z,36.49
2024-05-09T04:43:35.423Z,36.50
2024-05-09T04:44:35.500Z,36.45
2024-05-09T04:45:35.876Z,36.43
2024-05-09T04:46:35.530Z,36.46
2024-05-09T04:47:35.857Z,36.47
2024-05-09T04:48:35.728Z,36.44
2024-05-09T04:49:35.850Z,36.47
2024-05-09T04:50:38.644Z,36.47
2024-05-09T04:51:35.767Z,36.46
2024-05-09T04:52:35.771Z,36.46
2024-05-09T04:53:35.807Z,36.45
2024-05-09T04:54:36.718Z,36.45
2024-05-09T04:55:35.773Z,36.47
2024-05-09T04:56:35.813Z,36.41
2024-05-09T04:57:35.748Z,36.44
2024-05-09T04:58:35.744Z,36.42
2024-05-09T04:59:35.815Z,36.43
2024-05-09T05:00:37.901Z,36.39
2024-05-09T05:01:35.790Z,36.41
2024-05-09T05:02:35.785Z,36.39
2024-05-09T05:03:35.890Z,36.41
2024-05-09T05:04:35.751Z,36.41
2024-05-09T05:05:35.742Z,36.37
2024-05-09T05:06:35.729Z,36.38
2024-05-09T05:07:35.716Z,36.37
2024-05-09T05:08:35.751Z,36.38
2024-05-09T05:09:35.710Z,36.37
2024-05-09T05:10:36.891Z,36.37
2024-05-09T05:11:35.730Z,36.41
2024-05-09T05:12:35.697Z,36.39
2024-05-09T05:13:38.630Z,36.38
2024-05-09T05:14:35.707Z,36.39
2024-05-09T05:15:35.655Z,36.34
2024-05-09T05:16:35.633Z,36.36
2024-05-09T05:17:35.830Z,36.39
2024-05-09T05:18:35.703Z,36.34
2024-05-09T05:19:35.802Z,36.40
2024-05-09T05:20:35.719Z,36.38
2024-05-09T05:21:35.614Z,36.37
2024-05-09T05:22:35.822Z,36.36
2024-05-09T05:23:35.726Z,36.34
2024-05-09T05:24:35.609Z,36.32
2024-05-09T05:25:35.575Z,36.32
2024-05-09T05:26:35.595Z,36.34
2024-05-09T05:27:35.567Z,36.31
2024-05-09T05:28:35.559Z,36.32
2024-05-09T05:29:35.720Z,36.32
2024-05-09T05:30:35.845Z,36.33
2024-05-09T05:31:35.708Z,36.31
2024-05-09T05:32:35.848Z,36.32
2024-05-09T05:33:35.810Z,36.29
2024-05-09T05:34:35.807Z,36.31
2024-05-09T05:35:35.904Z,36.32
2024-05-09T05:36:35.912Z,36.32
2024-05-09T05:37:35.969Z,36.29
2024-05-09T05:38:36.044Z,36.31
2024-05-09T05:39:36.092Z,36.27
2024-05-09T05:40:38.155Z,36.24
2024-05-09T05:41:36.179Z,36.27
2024-05-09T05:42:36.128Z,36.24
2024-05-09T05:43:36.119Z,36.26
2024-05-09T05:44:36.135Z,36.28
2024-05-09T05:45:36.081Z,36.28
2024-05-09T05:46:36.073Z,36.25
2024-05-09T05:47:36.123Z,36.31
2024-05-09T05:48:36.120Z,36.26
2024-05-09T05:49:36.077Z,36.28
2024-05-09T05:50:37.965Z,36.31
2024-05-09T05:51:36.013Z,36.24
2024-05-09T05:52:35.997Z,36.24
2024-05-09T05:53:36.065Z,36.24
2024-05-09T05:54:35.983Z,36.26
2024-05-09T05:55:35.975Z,36.24
2024-05-09T05:56:36.025Z,36.26
2024-05-09T05:57:35.977Z,36.21
2024-05-09T05:58:35.974Z,36.25
2024-05-09T05:59:36.042Z,36.20
2024-05-09T06:00:39.037Z,36.18
2024-05-09T06:01:36.080Z,36.21
2024-05-09T06:02:36.049Z,36.20
2024-05-09T06:03:36.051Z,36.19
2024-05-09T06:04:35.987Z,36.21
2024-05-09T06:05:36.046Z,36.21
2024-05-09T06:06:35.961Z,36.20
2024-05-09T06:07:35.956Z,36.21
2024-05-09T06:08:35.981Z,36.14
2024-05-09T06:09:35.962Z,36.14
2024-05-09T06:10:39.277Z,36.19
2024-05-09T06:11:36.141Z,36.16
2024-05-09T06:12:35.941Z,36.20
2024-05-09T06:13:35.940Z,36.20
2024-05-09T06:14:35.995Z,36.14
2024-05-09T06:15:35.939Z,36.20
2024-05-09T06:16:35.950Z,36.13
2024-05-09T06:17:36.132Z,36.16
2024-05-09T06:18:36.345Z,36.16
2024-05-09T06:19:36.034Z,36.15
2024-05-09T06:20:38.009Z,36.15
2024-05-09T06:21:36.150Z,36.13
2024-05-09T06:22:36.186Z,36.15
2024-05-09T06:23:36.427Z,36.13
2024-05-09T06:24:36.279Z,36.12
2024-05-09T06:25:36.627Z,36.09
2024-05-09T06:26:36.420Z,36.08
2024-05-09T06:27:36.444Z,36.07
2024-05-09T06:28:36.503Z,36.10
2024-05-09T06:29:36.558Z,36.07
2024-05-09T06:30:39.801Z,36.09
2024-05-09T06:31:37.612Z,36.07
2024-05-09T06:32:36.701Z,36.04
2024-05-09T06:33:36.999Z,36.05
2024-05-09T06:34:36.658Z,36.04
2024-05-09T06:35:37.078Z,36.01
2024-05-09T06:36:36.592Z,36.08
2024-05-09T06:37:36.598Z,35.97
2024-05-09T06:38:36.658Z,35.98
2024-05-09T06:39:36.566Z,36.01
2024-05-09T06:40:39.172Z,35.99
2024-05-09T06:41:36.616Z,36.00
2024-05-09T06:42:36.555Z,35.98
2024-05-09T06:43:36.561Z,36.01
2024-05-09T06:44:36.598Z,35.98
2024-05-09T06:45:36.552Z,35.98
2024-05-09T06:46:36.555Z,35.96
2024-05-09T06:47:36.696Z,35.96
2024-05-09T06:48:36.637Z,35.94
2024-05-09T06:49:36.545Z,35.95
2024-05-09T06:50:38.343Z,35.92
2024-05-09T06:51:36.512Z,35.95
2024-05-09T06:52:36.507Z,35.93
2024-05-09T06:53:36.608Z,35.95
2024-05-09T06:54:36.507Z,35.93
2024-05-09T06:55:36.518Z,35.91
2024-05-09T06:56:36.515Z,35.91
2024-05-09T06:57:37.751Z,35.87
2024-05-09T06:58:36.660Z,35.90
2024-05-09T06:59:36.712Z,35.90
2024-05-09T07:00:39.674Z,35.91
2024-05-09T07:01:36.747Z,35.89
2024-05-09T07:02:36.773Z,35.89
2024-05-09T07:03:36.738Z,35.87
2024-05-09T07:04:36.796Z,35.86
2024-05-09T07:05:36.702Z,35.85
2024-05-09T07:06:36.672Z,35.91
2024-05-09T07:07:36.660Z,35.86
2024-05-09T07:08:36.750Z,35.85
2024-05-09T07:09:36.664Z,35.84
2024-05-09T07:10:37.206Z,35.82
2024-05-09T07:11:36.673Z,35.85
2024-05-09T07:12:36.618Z,35.82
2024-05-09T07:13:36.618Z,35.80
2024-05-09T07:14:38.444Z,35.78
2024-05-09T07:15:36.613Z,35.75
2024-05-09T07:16:36.595Z,35.77
2024-05-09T07:17:36.731Z,35.78
2024-05-09T07:18:36.898Z,35.74
2024-05-09T07:19:36.883Z,35.69
2024-05-09T07:20:36.750Z,35.73
2024-05-09T07:21:36.774Z,35.71
2024-05-09T07:22:36.784Z,35.72
2024-05-09T07:23:37.587Z,35.68
2024-05-09T07:24:36.861Z,35.68
2024-05-09T07:25:36.955Z,35.68
2024-05-09T07:26:37.063Z,35.69
2024-05-09T07:27:36.991Z,35.67
2024-05-09T07:28:37.023Z,35.66
2024-05-09T07:29:38.714Z,35.64
2024-05-09T07:30:37.093Z,35.63
2024-05-09T07:31:37.137Z,35.63
2024-05-09T07:32:37.284Z,35.67
2024-05-09T07:33:37.289Z,35.68
2024-05-09T07:34:37.281Z,35.68
2024-05-09T07:35:37.533Z,35.61
2024-05-09T07:36:37.322Z,35.65
2024-05-09T07:37:37.377Z,35.54
2024-05-09T07:38:37.673Z,35.55
2024-05-09T07:39:37.428Z,35.49
2024-05-09T07:40:37.451Z,35.44
2024-05-09T07:41:37.688Z,35.28
2024-05-09T07:42:37.520Z,35.16
2024-05-09T07:43:37.526Z,35.16
2024-05-09T07:44:37.633Z,35.14
2024-05-09T07:45:48.364Z,35.06
2024-05-09T07:47:47.335Z,34.95
2024-05-09T07:48:58.083Z,34.81
2024-05-09T07:53:33.818Z,34.33
2024-05-09T07:53:43.861Z,34.35
2024-05-09T07:54:38.573Z,34.43
2024-05-09T07:55:37.558Z,34.43
2024-05-09T07:56:37.504Z,34.43
2024-05-09T07:57:37.358Z,34.48
2024-05-09T07:58:37.292Z,34.49
2024-05-09T07:59:38.001Z,34.58
2024-05-09T08:00:37.358Z,34.63
2024-05-09T08:01:37.421Z,34.65
2024-05-09T08:02:37.271Z,34.63
2024-05-09T08:03:37.374Z,34.64
2024-05-09T08:04:37.245Z,34.62
2024-05-09T08:05:37.230Z,34.67
2024-05-09T08:06:37.136Z,34.69
2024-05-09T08:07:37.094Z,34.69
2024-05-09T08:08:37.088Z,34.72
2024-05-09T08:09:38.409Z,34.70
2024-05-09T08:10:37.113Z,34.73
2024-05-09T08:11:37.064Z,34.77
2024-05-09T08:12:37.038Z,34.77
2024-05-09T08:13:37.054Z,34.78
2024-05-09T08:14:36.983Z,34.81
2024-05-09T08:15:37.031Z,34.81
2024-05-09T08:16:36.970Z,34.79
2024-05-09T08:17:37.076Z,34.79
2024-05-09T08:18:37.139Z,34.72
2024-05-09T08:19:36.959Z,34.63
2024-05-09T08:20:36.907Z,34.48
2024-05-09T08:21:36.912Z,34.51
2024-05-09T08:22:36.863Z,34.47
2024-05-09T08:23:36.875Z,34.41
2024-05-09T08:24:36.871Z,34.36
2024-05-09T08:25:36.803Z,34.30
2024-05-09T08:26:36.790Z,34.23
2024-05-09T08:27:36.788Z,34.20
2024-05-09T08:28:36.737Z,34.23
2024-05-09T08:29:36.704Z,34.21
2024-05-09T08:30:38.107Z,34.25
2024-05-09T08:31:36.681Z,34.26
2024-05-09T08:32:36.815Z,34.23
2024-05-09T08:33:37.056Z,34.28
2024-05-09T08:34:36.618Z,34.28
2024-05-09T08:35:36.568Z,34.28
2024-05-09T08:36:36.576Z,34.29
2024-05-09T08:37:38.929Z,34.28
2024-05-09T08:38:36.491Z,34.29
2024-05-09T08:39:36.491Z,34.30
2024-05-09T08:40:37.876Z,34.34
2024-05-09T08:41:36.435Z,34.33
2024-05-09T08:42:36.445Z,34.33
2024-05-09T08:43:38.218Z,34.33
2024-05-09T08:44:36.386Z,34.37
2024-05-09T08:45:36.393Z,34.26
2024-05-09T08:46:36.383Z,34.26
2024-05-09T08:47:36.377Z,34.19
2024-05-09T08:48:36.502Z,34.14
2024-05-09T08:49:37.663Z,34.13
2024-05-09T08:50:39.112Z,34.10
2024-05-09T08:51:36.342Z,34.09
2024-05-09T08:52:36.238Z,34.04
2024-05-09T08:53:36.257Z,34.08
2024-05-09T08:54:36.230Z,34.05
2024-05-09T08:55:38.142Z,34.04
2024-05-09T08:56:36.895Z,34.01
2024-05-09T08:57:36.187Z,34.07
2024-05-09T08:58:36.111Z,34.09
2024-05-09T08:59:36.099Z,34.09
2024-05-09T09:00:37.594Z,34.08
2024-05-09T09:01:37.779Z,34.13
2024-05-09T09:02:36.194Z,34.13
2024-05-09T09:03:36.345Z,34.15
2024-05-09T09:04:36.098Z,34.13
2024-05-09T09:05:36.065Z,34.06
2024-05-09T09:06:36.025Z,34.09
2024-05-09T09:07:35.989Z,34.12
2024-05-09T09:08:35.956Z,34.12
2024-05-09T09:09:35.958Z,34.13
2024-05-09T09:10:36.107Z,34.08
2024-05-09T09:11:35.941Z,34.10
2024-05-09T09:12:35.919Z,34.10
2024-05-09T09:13:35.861Z,34.09
2024-05-09T09:14:35.839Z,34.10
2024-05-09T09:15:35.868Z,34.05
2024-05-09T09:16:35.804Z,34.06
2024-05-09T09:17:35.839Z,34.12
2024-05-09T09:18:36.032Z,34.10
2024-05-09T09:19:35.846Z,34.11
2024-05-09T09:20:37.056Z,34.09
2024-05-09T09:21:35.764Z,34.10
2024-05-09T09:22:35.659Z,34.10
2024-05-09T09:23:35.640Z,34.12
2024-05-09T09:24:35.645Z,34.08
2024-05-09T09:25:35.614Z,34.11
2024-05-09T09:26:35.595Z,34.14
2024-05-09T09:27:35.605Z,34.12
2024-05-09T09:28:35.556Z,34.12
2024-05-09T09:29:35.531Z,34.11
2024-05-09T09:30:37.945Z,34.12
2024-05-09T09:31:35.581Z,34.09
2024-05-09T09:32:35.504Z,34.09
2024-05-09T09:33:36.025Z,34.11
2024-05-09T09:34:35.462Z,34.10
2024-05-09T09:35:35.387Z,34.10
2024-05-09T09:36:35.397Z,34.07
2024-05-09T09:37:35.346Z,34.09
2024-05-09T09:38:35.326Z,34.06
2024-05-09T09:39:35.381Z,34.11
2024-05-09T09:40:38.714Z,34.06
2024-05-09T09:41:36.272Z,34.11
2024-05-09T09:42:35.270Z,34.09
2024-05-09T09:43:35.219Z,34.09
2024-05-09T09:44:37.360Z,34.07
2024-05-09T09:45:35.181Z,34.10
2024-05-09T09:46:35.187Z,34.07
2024-05-09T09:47:35.256Z,34.07
2024-05-09T09:48:35.251Z,34.05
2024-05-09T09:49:35.084Z,34.06
2024-05-09T09:50:35.431Z,34.06
2024-05-09T09:51:34.984Z,34.08
2024-05-09T09:52:34.961Z,34.07
2024-05-09T09:53:34.946Z,34.11
2024-05-09T09:54:34.982Z,34.09
2024-05-09T09:55:34.909Z,34.07
2024-05-09T09:56:34.898Z,34.09
2024-05-09T09:57:34.906Z,34.05
2024-05-09T09:58:34.906Z,34.07
2024-05-09T09:59:34.814Z,34.09
2024-05-09T10:00:34.832Z,34.12
2024-05-09T10:01:34.906Z,34.11
2024-05-09T10:02:34.771Z,34.08
2024-05-09T10:03:34.904Z,34.10
2024-05-09T10:04:34.774Z,34.11
2024-05-09T10:05:34.880Z,34.10
2024-05-09T10:06:34.704Z,34.13
2024-05-09T10:07:34.633Z,34.10
2024-05-09T10:08:34.626Z,34.11
2024-05-09T10:09:35.441Z,34.11
2024-05-09T10:10:34.925Z,34.12
2024-05-09T10:11:41.879Z,34.06
2024-05-09T10:12:35.912Z,34.16
2024-05-09T10:13:34.959Z,34.12
2024-05-09T10:14:34.709Z,34.09
2024-05-09T10:15:34.744Z,34.09
2024-05-09T10:16:34.703Z,34.11
2024-05-09T10:17:34.806Z,34.12
2024-05-09T10:18:34.819Z,34.08
2024-05-09T10:19:34.725Z,34.09
2024-05-09T10:20:34.710Z,34.09
2024-05-09T10:21:34.770Z,34.07
2024-05-09T10:22:34.770Z,34.07
2024-05-09T10:23:34.856Z,34.07
2024-05-09T10:24:34.872Z,34.05
2024-05-09T10:25:34.904Z,34.03
2024-05-09T10:26:34.918Z,34.09
2024-05-09T10:27:35.005Z,34.10
2024-05-09T10:28:35.058Z,34.09
2024-05-09T10:29:35.049Z,34.05
2024-05-09T10:30:36.371Z,34.07
2024-05-09T10:31:35.165Z,34.08
2024-05-09T10:32:35.214Z,34.05
2024-05-09T10:33:35.390Z,34.09
2024-05-09T10:34:35.362Z,34.05
2024-05-09T10:35:35.268Z,34.08
2024-05-09T10:36:35.330Z,34.09
2024-05-09T10:37:35.403Z,34.08
2024-05-09T10:38:35.397Z,34.07
2024-05-09T10:39:35.454Z,34.02
2024-05-09T10:40:35.491Z,34.03
2024-05-09T10:41:35.527Z,34.04
2024-05-09T10:42:35.569Z,34.06
2024-05-09T10:43:35.623Z,34.06
2024-05-09T10:44:35.650Z,34.05
2024-05-09T10:45:35.732Z,34.04
2024-05-09T10:46:35.710Z,34.05
2024-05-09T10:47:35.827Z,33.99
2024-05-09T10:48:35.869Z,34.06
2024-05-09T10:49:35.826Z,34.01
2024-05-09T10:50:35.914Z,34.05
2024-05-09T10:51:35.938Z,34.07
2024-05-09T10:52:35.932Z,34.05
2024-05-09T10:53:35.982Z,34.01
2024-05-09T10:54:36.032Z,34.06
2024-05-09T10:55:36.023Z,34.05
2024-05-09T10:56:36.031Z,34.01
2024-05-09T10:57:36.061Z,34.09
2024-05-09T10:58:36.075Z,34.09
2024-05-09T10:59:36.085Z,34.10
2024-05-09T11:00:36.803Z,34.07
2024-05-09T11:01:36.216Z,34.10
2024-05-09T11:02:36.274Z,34.10
2024-05-09T11:03:36.566Z,34.11
2024-05-09T11:04:36.266Z,34.15
2024-05-09T11:05:36.491Z,34.11
2024-05-09T11:06:36.314Z,34.13
2024-05-09T11:07:36.258Z,34.11
2024-05-09T11:08:36.297Z,34.15
2024-05-09T11:09:36.354Z,34.13
2024-05-09T11:10:36.411Z,34.13
2024-05-09T11:11:36.455Z,34.16
2024-05-09T11:12:36.505Z,34.23
2024-05-09T11:13:36.590Z,34.17
2024-05-09T11:14:36.603Z,34.21
2024-05-09T11:15:36.655Z,34.21
2024-05-09T11:16:36.667Z,34.21
2024-05-09T11:17:36.808Z,34.19
2024-05-09T11:18:39.036Z,34.22
2024-05-09T11:19:36.855Z,34.19
2024-05-09T11:20:37.047Z,34.18
2024-05-09T11:21:36.755Z,34.22
2024-05-09T11:22:36.761Z,34.21
2024-05-09T11:23:36.725Z,34.27
2024-05-09T11:24:36.721Z,34.24
2024-05-09T11:25:36.675Z,34.27
2024-05-09T11:26:36.655Z,34.27
2024-05-09T11:27:36.670Z,34.27
2024-05-09T11:28:36.639Z,34.28
2024-05-09T11:29:36.615Z,34.29
2024-05-09T11:30:36.630Z,34.29
2024-05-09T11:31:36.703Z,34.33
2024-05-09T11:32:36.667Z,34.29
2024-05-09T11:33:36.733Z,34.29
2024-05-09T11:34:36.567Z,34.30
2024-05-09T11:35:36.491Z,34.30
2024-05-09T11:36:36.516Z,34.30
2024-05-09T11:37:37.266Z,34.32
2024-05-09T11:38:36.453Z,34.34
2024-05-09T11:39:36.478Z,34.39
2024-05-09T11:40:36.501Z,34.34
2024-05-09T11:41:36.421Z,34.35
2024-05-09T11:42:36.417Z,34.36
2024-05-09T11:43:36.398Z,34.35
2024-05-09T11:44:36.389Z,34.36
2024-05-09T11:45:36.377Z,34.39
2024-05-09T11:46:36.344Z,34.41
2024-05-09T11:47:36.400Z,34.39
2024-05-09T11:48:36.446Z,34.40
2024-05-09T11:49:36.343Z,34.39
2024-05-09T11:50:36.507Z,34.40
2024-05-09T11:51:36.292Z,34.39
2024-05-09T11:52:36.249Z,34.39
2024-05-09T11:53:36.247Z,34.44
2024-05-09T11:54:36.266Z,34.39
2024-05-09T11:55:36.291Z,34.43
2024-05-09T11:56:36.175Z,34.41
2024-05-09T11:57:36.195Z,34.44
2024-05-09T11:58:36.142Z,34.41
2024-05-09T11:59:36.145Z,34.42
2024-05-09T12:00:37.516Z,34.45
2024-05-09T12:01:36.258Z,34.41
2024-05-09T12:02:36.195Z,34.45
2024-05-09T12:03:36.240Z,34.45
2024-05-09T12:04:36.303Z,34.45
2024-05-09T12:05:36.386Z,34.41
2024-05-09T12:06:36.321Z,34.46
2024-05-09T12:07:36.292Z,34.46
2024-05-09T12:08:36.360Z,34.46
2024-05-09T12:09:36.386Z,34.45
2024-05-09T12:10:37.113Z,34.46
2024-05-09T12:11:36.484Z,34.46
2024-05-09T12:12:37.419Z,34.44
2024-05-09T12:13:36.586Z,34.48
2024-05-09T12:14:36.562Z,34.46
2024-05-09T12:15:37.644Z,34.48
2024-05-09T12:16:36.723Z,34.49
2024-05-09T12:17:36.741Z,34.47
2024-05-09T12:18:36.723Z,34.46
2024-05-09T12:19:36.775Z,34.46
2024-05-09T12:20:39.381Z,34.50
2024-05-09T12:21:36.768Z,34.48
2024-05-09T12:22:36.716Z,34.52
2024-05-09T12:23:36.693Z,34.48
2024-05-09T12:24:36.719Z,34.47
2024-05-09T12:25:36.655Z,34.50
2024-05-09T12:26:36.637Z,34.48
2024-05-09T12:27:36.694Z,34.46
2024-05-09T12:28:36.619Z,34.51
2024-05-09T12:29:38.810Z,34.51
2024-05-09T12:30:39.662Z,34.52
2024-05-09T12:31:36.621Z,34.51
2024-05-09T12:32:36.631Z,34.53
2024-05-09T12:33:36.657Z,34.50
2024-05-09T12:34:36.611Z,34.51
2024-05-09T12:35:36.590Z,34.52
2024-05-09T12:36:36.551Z,34.47
2024-05-09T12:37:36.501Z,34.50
2024-05-09T12:38:36.487Z,34.52
2024-05-09T12:39:36.502Z,34.47
2024-05-09T12:40:38.547Z,34.51
2024-05-09T12:41:36.424Z,34.54
2024-05-09T12:42:36.450Z,34.51
2024-05-09T12:43:36.433Z,34.52
2024-05-09T12:44:36.365Z,34.55
2024-05-09T12:45:36.476Z,34.50
2024-05-09T12:46:36.347Z,34.54
2024-05-09T12:47:36.378Z,34.51
2024-05-09T12:48:36.522Z,34.52
2024-05-09T12:49:36.455Z,34.52
2024-05-09T12:50:36.903Z,34.53
2024-05-09T12:51:36.336Z,34.48
2024-05-09T12:52:36.245Z,34.50
2024-05-09T12:53:36.237Z,34.52
2024-05-09T12:54:36.259Z,34.53
2024-05-09T12:55:44.096Z,34.58
2024-05-09T12:56:37.204Z,34.55
2024-05-09T12:57:36.205Z,34.51